sensor_id;sensor_type;location;lat;lon;timestamp;temperature;humidity
49319;DHT22;35818;44.498;0.166;2022-09-01T06:11:30;21.40;91.80
49319;DHT22;35818;44.498;0.166;2022-09-01T06:13:57;21.40;91.50
49319;DHT22;35818;44.498;0.166;2022-09-01T06:16:23;21.40;91.50
49319;DHT22;35818;44.498;0.166;2022-09-01T06:18:50;21.40;91.60
49319;DHT22;35818;44.498;0.166;2022-09-01T06:21:17;21.40;91.60
49319;DHT22;35818;44.498;0.166;2022-09-01T06:23:43;21.40;91.50
49319;DHT22;35818;44.498;0.166;2022-09-01T06:26:31;21.50;91.30
49319;DHT22;35818;44.498;0.166;2022-09-01T06:28:56;21.50;91.20
49319;DHT22;35818;44.498;0.166;2022-09-01T06:31:23;21.50;91.20
49319;DHT22;35818;44.498;0.166;2022-09-01T06:33:51;21.50;91.00
49319;DHT22;35818;44.498;0.166;2022-09-01T06:36:45;21.60;90.90
49319;DHT22;35818;44.498;0.166;2022-09-01T06:39:53;21.60;90.80
49319;DHT22;35818;44.498;0.166;2022-09-01T06:50:44;21.70;90.40
49319;DHT22;35818;44.498;0.166;2022-09-01T06:53:11;21.80;90.20
49319;DHT22;35818;44.498;0.166;2022-09-01T06:55:47;21.70;90.00
49319;DHT22;35818;44.498;0.166;2022-09-01T06:58:51;21.70;90.10
49319;DHT22;35818;44.498;0.166;2022-09-01T07:01:19;21.70;90.10
49319;DHT22;35818;44.498;0.166;2022-09-01T07:03:56;21.80;89.80
49319;DHT22;35818;44.498;0.166;2022-09-01T07:06:22;22.00;89.00
49319;DHT22;35818;44.498;0.166;2022-09-01T07:08:56;22.00;88.50
49319;DHT22;35818;44.498;0.166;2022-09-01T07:11:30;22.00;88.10
49319;DHT22;35818;44.498;0.166;2022-09-01T07:20:19;22.30;86.80
49319;DHT22;35818;44.498;0.166;2022-09-01T07:22:46;22.50;85.90
49319;DHT22;35818;44.498;0.166;2022-09-01T07:25:12;22.60;84.90
49319;DHT22;35818;44.498;0.166;2022-09-01T07:27:53;22.70;84.40
49319;DHT22;35818;44.498;0.166;2022-09-01T07:30:20;22.70;84.10
49319;DHT22;35818;44.498;0.166;2022-09-01T07:32:45;22.80;83.90
49319;DHT22;35818;44.498;0.166;2022-09-01T07:35:12;22.90;83.20
49319;DHT22;35818;44.498;0.166;2022-09-01T07:37:40;22.90;82.50
49319;DHT22;35818;44.498;0.166;2022-09-01T07:40:10;23.00;82.10
49319;DHT22;35818;44.498;0.166;2022-09-01T07:48:36;23.30;81.10
49319;DHT22;35818;44.498;0.166;2022-09-01T07:51:07;23.40;80.50
49319;DHT22;35818;44.498;0.166;2022-09-01T07:53:34;23.50;79.80
49319;DHT22;35818;44.498;0.166;2022-09-01T07:56:04;23.60;79.30
49319;DHT22;35818;44.498;0.166;2022-09-01T07:58:34;23.80;78.80
49319;DHT22;35818;44.498;0.166;2022-09-01T08:01:00;24.00;78.40
49319;DHT22;35818;44.498;0.166;2022-09-01T08:03:36;24.30;77.40
49319;DHT22;35818;44.498;0.166;2022-09-01T08:06:09;24.40;76.10
49319;DHT22;35818;44.498;0.166;2022-09-01T08:08:48;24.50;75.30
49319;DHT22;35818;44.498;0.166;2022-09-01T08:11:20;24.50;74.60
49319;DHT22;35818;44.498;0.166;2022-09-01T08:14:07;24.40;74.60
49319;DHT22;35818;44.498;0.166;2022-09-01T08:16:32;24.40;74.50
49319;DHT22;35818;44.498;0.166;2022-09-01T08:19:08;24.60;74.20
49319;DHT22;35818;44.498;0.166;2022-09-01T08:21:44;24.90;73.80
49319;DHT22;35818;44.498;0.166;2022-09-01T08:24:10;25.10;72.50
49319;DHT22;35818;44.498;0.166;2022-09-01T08:26:58;25.00;71.80
49319;DHT22;35818;44.498;0.166;2022-09-01T08:29:34;24.90;71.80
49319;DHT22;35818;44.498;0.166;2022-09-01T08:32:10;24.80;72.30
49319;DHT22;35818;44.498;0.166;2022-09-01T08:34:35;25.00;72.10
49319;DHT22;35818;44.498;0.166;2022-09-01T08:37:02;25.10;71.40
49319;DHT22;35818;44.498;0.166;2022-09-01T08:39:27;25.20;70.60
49319;DHT22;35818;44.498;0.166;2022-09-01T08:42:05;25.10;70.20
49319;DHT22;35818;44.498;0.166;2022-09-01T08:47:11;25.10;71.10
49319;DHT22;35818;44.498;0.166;2022-09-01T08:49:38;25.40;69.80
49319;DHT22;35818;44.498;0.166;2022-09-01T08:52:07;25.60;69.00
49319;DHT22;35818;44.498;0.166;2022-09-01T08:57:05;25.80;68.10
49319;DHT22;35818;44.498;0.166;2022-09-01T08:59:31;26.00;66.80
49319;DHT22;35818;44.498;0.166;2022-09-01T09:10:04;26.10;66.30
49319;DHT22;35818;44.498;0.166;2022-09-01T09:12:35;26.20;66.30
49319;DHT22;35818;44.498;0.166;2022-09-01T09:15:10;26.40;65.80
49319;DHT22;35818;44.498;0.166;2022-09-01T09:17:39;26.70;65.20
49319;DHT22;35818;44.498;0.166;2022-09-01T09:20:06;26.90;64.80
49319;DHT22;35818;44.498;0.166;2022-09-01T09:22:32;27.10;64.20
49319;DHT22;35818;44.498;0.166;2022-09-01T09:25:01;27.20;63.40
49319;DHT22;35818;44.498;0.166;2022-09-01T09:27:34;27.20;63.00
49319;DHT22;35818;44.498;0.166;2022-09-01T09:30:20;27.20;63.20
49319;DHT22;35818;44.498;0.166;2022-09-01T09:32:54;27.40;62.90
49319;DHT22;35818;44.498;0.166;2022-09-01T09:35:31;27.70;61.90
49319;DHT22;35818;44.498;0.166;2022-09-01T09:38:22;27.70;61.20
49319;DHT22;35818;44.498;0.166;2022-09-01T09:41:00;27.60;61.10
49319;DHT22;35818;44.498;0.166;2022-09-01T09:43:26;27.50;61.50
49319;DHT22;35818;44.498;0.166;2022-09-01T09:48:38;27.50;61.60
49319;DHT22;35818;44.498;0.166;2022-09-01T09:51:18;27.50;61.50
49319;DHT22;35818;44.498;0.166;2022-09-01T09:53:44;27.40;61.30
49319;DHT22;35818;44.498;0.166;2022-09-01T09:58:43;27.30;61.90
49319;DHT22;35818;44.498;0.166;2022-09-01T10:01:10;27.50;61.90
49319;DHT22;35818;44.498;0.166;2022-09-01T10:03:44;27.90;60.80
49319;DHT22;35818;44.498;0.166;2022-09-01T10:06:11;28.60;59.20
49319;DHT22;35818;44.498;0.166;2022-09-01T10:08:41;28.90;58.00
49319;DHT22;35818;44.498;0.166;2022-09-01T10:11:30;29.20;57.40
49319;DHT22;35818;44.498;0.166;2022-09-01T10:13:57;29.50;56.50
49319;DHT22;35818;44.498;0.166;2022-09-01T10:16:25;29.60;55.90
49319;DHT22;35818;44.498;0.166;2022-09-01T10:19:02;29.40;56.00
49319;DHT22;35818;44.498;0.166;2022-09-01T10:21:46;30.00;55.70
49319;DHT22;35818;44.498;0.166;2022-09-01T14:49:20;40.40;32.80
49319;DHT22;35818;44.498;0.166;2022-09-01T14:51:45;39.60;33.60
49319;DHT22;35818;44.498;0.166;2022-09-01T14:54:11;38.90;34.30
49319;DHT22;35818;44.498;0.166;2022-09-01T14:56:36;38.50;34.80
49319;DHT22;35818;44.498;0.166;2022-09-01T14:59:02;38.30;35.00
49319;DHT22;35818;44.498;0.166;2022-09-01T15:01:28;38.20;35.00
49319;DHT22;35818;44.498;0.166;2022-09-01T15:03:54;38.20;34.90
49319;DHT22;35818;44.498;0.166;2022-09-01T15:06:22;38.20;34.70
49319;DHT22;35818;44.498;0.166;2022-09-01T15:08:48;38.50;34.60
49319;DHT22;35818;44.498;0.166;2022-09-01T15:11:15;38.80;34.40
49319;DHT22;35818;44.498;0.166;2022-09-01T15:13:41;38.90;34.30
49319;DHT22;35818;44.498;0.166;2022-09-01T15:16:21;38.90;34.30
49319;DHT22;35818;44.498;0.166;2022-09-01T15:18:47;38.80;34.40
49319;DHT22;35818;44.498;0.166;2022-09-01T15:21:24;38.70;34.60
49319;DHT22;35818;44.498;0.166;2022-09-01T15:23:51;39.10;34.40
49319;DHT22;35818;44.498;0.166;2022-09-01T15:26:18;39.40;34.10
49319;DHT22;35818;44.498;0.166;2022-09-01T15:28:44;39.40;34.00
49319;DHT22;35818;44.498;0.166;2022-09-01T15:31:10;39.50;34.10
49319;DHT22;35818;44.498;0.166;2022-09-01T15:33:37;39.40;34.10
49319;DHT22;35818;44.498;0.166;2022-09-01T15:36:12;39.30;34.20
49319;DHT22;35818;44.498;0.166;2022-09-01T15:38:38;39.40;34.30
49319;DHT22;35818;44.498;0.166;2022-09-01T15:41:04;40.00;34.10
49319;DHT22;35818;44.498;0.166;2022-09-01T15:43:31;40.50;33.50
49319;DHT22;35818;44.498;0.166;2022-09-01T15:45:57;40.90;33.10
49319;DHT22;35818;44.498;0.166;2022-09-01T15:48:23;41.20;33.00
49319;DHT22;35818;44.498;0.166;2022-09-01T15:50:49;41.10;32.60
49319;DHT22;35818;44.498;0.166;2022-09-01T15:53:14;40.70;32.80
49319;DHT22;35818;44.498;0.166;2022-09-01T15:55:43;40.40;33.10
49319;DHT22;35818;44.498;0.166;2022-09-01T15:58:09;40.20;33.40
49319;DHT22;35818;44.498;0.166;2022-09-01T16:00:37;40.00;33.50
49319;DHT22;35818;44.498;0.166;2022-09-01T16:03:03;39.80;33.70
49319;DHT22;35818;44.498;0.166;2022-09-01T16:05:29;39.70;33.70
49319;DHT22;35818;44.498;0.166;2022-09-01T16:07:55;39.40;33.90
49319;DHT22;35818;44.498;0.166;2022-09-01T16:10:20;38.80;34.20
49319;DHT22;35818;44.498;0.166;2022-09-01T16:12:46;38.40;34.70
49319;DHT22;35818;44.498;0.166;2022-09-01T16:15:15;38.30;35.00
49319;DHT22;35818;44.498;0.166;2022-09-01T16:20:12;38.00;35.30
49319;DHT22;35818;44.498;0.166;2022-09-01T16:25:28;37.70;35.50
49319;DHT22;35818;44.498;0.166;2022-09-01T16:27:54;37.50;35.80
49319;DHT22;35818;44.498;0.166;2022-09-01T16:30:22;37.30;36.20
49319;DHT22;35818;44.498;0.166;2022-09-01T16:32:48;36.80;36.30
49319;DHT22;35818;44.498;0.166;2022-09-01T16:35:14;36.50;36.80
49319;DHT22;35818;44.498;0.166;2022-09-01T16:37:50;36.00;37.10
49319;DHT22;35818;44.498;0.166;2022-09-01T16:43:14;35.00;38.30
49319;DHT22;35818;44.498;0.166;2022-09-01T16:45:57;34.60;39.40
49319;DHT22;35818;44.498;0.166;2022-09-01T16:48:36;34.20;39.30
49319;DHT22;35818;44.498;0.166;2022-09-01T16:53:44;33.80;40.00
49319;DHT22;35818;44.498;0.166;2022-09-01T16:56:19;33.50;40.30
49319;DHT22;35818;44.498;0.166;2022-09-01T17:04:06;33.00;41.30
49319;DHT22;35818;44.498;0.166;2022-09-01T17:06:44;32.80;41.40
49319;DHT22;35818;44.498;0.166;2022-09-01T17:09:20;32.70;41.50
49319;DHT22;35818;44.498;0.166;2022-09-01T17:11:50;32.90;41.50
49319;DHT22;35818;44.498;0.166;2022-09-01T17:14:22;33.00;41.40
49319;DHT22;35818;44.498;0.166;2022-09-01T17:16:54;32.90;42.00
49319;DHT22;35818;44.498;0.166;2022-09-01T17:19:23;32.60;42.60
49319;DHT22;35818;44.498;0.166;2022-09-01T17:22:03;32.30;43.50
49319;DHT22;35818;44.498;0.166;2022-09-01T17:24:37;31.90;44.30
49319;DHT22;35818;44.498;0.166;2022-09-01T17:27:05;31.70;45.40
49319;DHT22;35818;44.498;0.166;2022-09-01T17:29:34;31.60;45.10
49319;DHT22;35818;44.498;0.166;2022-09-01T17:37:38;31.10;44.60
49319;DHT22;35818;44.498;0.166;2022-09-01T17:45:39;30.50;45.30
49319;DHT22;35818;44.498;0.166;2022-09-01T17:50:44;30.20;45.70
49319;DHT22;35818;44.498;0.166;2022-09-01T17:58:11;29.80;48.60
49319;DHT22;35818;44.498;0.166;2022-09-01T18:00:39;29.50;49.40
49319;DHT22;35818;44.498;0.166;2022-09-01T18:03:22;29.40;49.40
49319;DHT22;35818;44.498;0.166;2022-09-01T18:10:56;29.30;48.40
49319;DHT22;35818;44.498;0.166;2022-09-01T18:13:35;29.40;48.10
49319;DHT22;35818;44.498;0.166;2022-09-01T18:16:04;29.30;48.30
49319;DHT22;35818;44.498;0.166;2022-09-01T18:21:01;28.80;50.70
49319;DHT22;35818;44.498;0.166;2022-09-01T18:23:27;28.60;51.70
49319;DHT22;35818;44.498;0.166;2022-09-01T18:25:55;28.30;52.40
49319;DHT22;35818;44.498;0.166;2022-09-01T18:28:22;28.10;53.50
49319;DHT22;35818;44.498;0.166;2022-09-01T18:35:40;27.50;55.50
49319;DHT22;35818;44.498;0.166;2022-09-01T18:43:36;27.10;56.80
49319;DHT22;35818;44.498;0.166;2022-09-01T18:48:48;26.80;56.80
49319;DHT22;35818;44.498;0.166;2022-09-01T18:51:23;26.70;57.00
49319;DHT22;35818;44.498;0.166;2022-09-01T18:54:04;26.60;58.00
49319;DHT22;35818;44.498;0.166;2022-09-01T18:56:35;26.50;58.60
49319;DHT22;35818;44.498;0.166;2022-09-01T18:59:26;26.40;59.20
49319;DHT22;35818;44.498;0.166;2022-09-01T19:04:32;26.20;59.80
49319;DHT22;35818;44.498;0.166;2022-09-01T19:09:36;26.00;60.70
49319;DHT22;35818;44.498;0.166;2022-09-01T19:24:57;25.50;61.90
49319;DHT22;35818;44.498;0.166;2022-09-01T19:27:56;25.40;62.10
49319;DHT22;35818;44.498;0.166;2022-09-01T19:30:22;25.40;62.30
49319;DHT22;35818;44.498;0.166;2022-09-01T19:32:49;25.40;62.30
49319;DHT22;35818;44.498;0.166;2022-09-01T19:35:15;25.40;62.20
49319;DHT22;35818;44.498;0.166;2022-09-01T19:37:41;25.30;62.50
49319;DHT22;35818;44.498;0.166;2022-09-01T19:40:09;25.30;63.20
49319;DHT22;35818;44.498;0.166;2022-09-01T19:45:11;25.30;64.20
49319;DHT22;35818;44.498;0.166;2022-09-01T19:50:21;25.10;65.10
49319;DHT22;35818;44.498;0.166;2022-09-01T19:55:31;25.00;65.90
49319;DHT22;35818;44.498;0.166;2022-09-01T19:58:21;24.90;66.30
49319;DHT22;35818;44.498;0.166;2022-09-01T20:00:49;24.80;67.50
49319;DHT22;35818;44.498;0.166;2022-09-01T20:03:26;24.70;68.30
49319;DHT22;35818;44.498;0.166;2022-09-01T20:05:58;24.70;68.40
49319;DHT22;35818;44.498;0.166;2022-09-01T20:08:36;24.70;68.60
49319;DHT22;35818;44.498;0.166;2022-09-01T20:11:07;24.60;68.50
49319;DHT22;35818;44.498;0.166;2022-09-01T20:16:15;24.60;67.80
49319;DHT22;35818;44.498;0.166;2022-09-01T20:18:45;24.60;67.60
49319;DHT22;35818;44.498;0.166;2022-09-01T20:21:12;24.60;67.40
49319;DHT22;35818;44.498;0.166;2022-09-01T20:23:42;24.60;67.30
49319;DHT22;35818;44.498;0.166;2022-09-01T20:26:14;24.60;67.90
49319;DHT22;35818;44.498;0.166;2022-09-01T20:31:19;24.50;68.10
49319;DHT22;35818;44.498;0.166;2022-09-01T20:33:51;24.50;68.30
49319;DHT22;35818;44.498;0.166;2022-09-01T20:43:58;24.30;69.00
49319;DHT22;35818;44.498;0.166;2022-09-01T20:46:28;24.30;69.20
49319;DHT22;35818;44.498;0.166;2022-09-01T20:48:54;24.30;69.20
49319;DHT22;35818;44.498;0.166;2022-09-01T20:59:09;24.10;68.50
49319;DHT22;35818;44.498;0.166;2022-09-01T21:01:42;24.10;68.60
49319;DHT22;35818;44.498;0.166;2022-09-01T21:09:10;24.00;68.10
49319;DHT22;35818;44.498;0.166;2022-09-01T21:14:17;23.90;67.00
49319;DHT22;35818;44.498;0.166;2022-09-01T21:21:45;23.90;65.80
49319;DHT22;35818;44.498;0.166;2022-09-01T21:24:15;23.90;66.00
49319;DHT22;35818;44.498;0.166;2022-09-01T21:26:41;23.80;65.20
49319;DHT22;35818;44.498;0.166;2022-09-01T21:29:12;23.80;65.00
49319;DHT22;35818;44.498;0.166;2022-09-01T21:31:41;23.80;65.10
49319;DHT22;35818;44.498;0.166;2022-09-01T21:34:08;23.80;65.10
49319;DHT22;35818;44.498;0.166;2022-09-01T21:36:33;23.70;64.90
49319;DHT22;35818;44.498;0.166;2022-09-01T21:38:59;23.60;64.60
49319;DHT22;35818;44.498;0.166;2022-09-01T21:41:24;23.60;64.40
49319;DHT22;35818;44.498;0.166;2022-09-01T21:43:50;23.60;64.20
49319;DHT22;35818;44.498;0.166;2022-09-01T21:46:15;23.60;63.90
49319;DHT22;35818;44.498;0.166;2022-09-01T21:48:44;23.50;63.70
49319;DHT22;35818;44.498;0.166;2022-09-01T21:51:10;23.50;63.50
49319;DHT22;35818;44.498;0.166;2022-09-01T21:53:35;23.50;63.30
49319;DHT22;35818;44.498;0.166;2022-09-01T21:56:01;23.50;63.10
49319;DHT22;35818;44.498;0.166;2022-09-01T21:58:27;23.50;63.30
49319;DHT22;35818;44.498;0.166;2022-09-01T22:00:52;23.50;63.60
49319;DHT22;35818;44.498;0.166;2022-09-01T22:03:18;23.40;63.80
49319;DHT22;35818;44.498;0.166;2022-09-01T22:05:43;23.40;64.00
49319;DHT22;35818;44.498;0.166;2022-09-01T22:08:10;23.30;64.10
49319;DHT22;35818;44.498;0.166;2022-09-01T22:10:39;23.30;64.10
49319;DHT22;35818;44.498;0.166;2022-09-01T22:13:05;23.30;63.90
49319;DHT22;35818;44.498;0.166;2022-09-01T22:15:30;23.20;63.70
49319;DHT22;35818;44.498;0.166;2022-09-01T22:17:56;23.20;63.60
49319;DHT22;35818;44.498;0.166;2022-09-01T22:20:22;23.10;63.50
49319;DHT22;35818;44.498;0.166;2022-09-01T22:22:48;23.10;63.40
49319;DHT22;35818;44.498;0.166;2022-09-01T22:25:16;23.10;63.30
49319;DHT22;35818;44.498;0.166;2022-09-01T22:27:41;23.10;63.20
49319;DHT22;35818;44.498;0.166;2022-09-01T22:30:08;23.10;63.10
49319;DHT22;35818;44.498;0.166;2022-09-01T22:32:34;23.10;63.10
49319;DHT22;35818;44.498;0.166;2022-09-01T22:35:01;23.00;63.00
49319;DHT22;35818;44.498;0.166;2022-09-01T22:37:27;23.00;63.10
49319;DHT22;35818;44.498;0.166;2022-09-01T22:39:52;23.00;63.10
49319;DHT22;35818;44.498;0.166;2022-09-01T22:42:18;23.00;63.20
49319;DHT22;35818;44.498;0.166;2022-09-01T22:44:43;23.00;63.30
49319;DHT22;35818;44.498;0.166;2022-09-01T22:47:09;22.90;63.30
49319;DHT22;35818;44.498;0.166;2022-09-01T22:49:34;22.90;63.50
49319;DHT22;35818;44.498;0.166;2022-09-01T22:52:01;22.90;63.60
49319;DHT22;35818;44.498;0.166;2022-09-01T22:54:26;22.80;63.70
49319;DHT22;35818;44.498;0.166;2022-09-01T22:56:52;22.80;63.80
49319;DHT22;35818;44.498;0.166;2022-09-01T22:59:18;22.70;63.90
49319;DHT22;35818;44.498;0.166;2022-09-01T23:01:45;22.70;64.20
49319;DHT22;35818;44.498;0.166;2022-09-01T23:04:12;22.60;64.30
49319;DHT22;35818;44.498;0.166;2022-09-01T23:06:40;22.60;64.50
49319;DHT22;35818;44.498;0.166;2022-09-01T23:09:05;22.50;64.90
49319;DHT22;35818;44.498;0.166;2022-09-01T23:11:31;22.50;65.20
49319;DHT22;35818;44.498;0.166;2022-09-01T23:13:57;22.50;65.50
49319;DHT22;35818;44.498;0.166;2022-09-01T23:16:23;22.40;65.60
49319;DHT22;35818;44.498;0.166;2022-09-01T23:18:49;22.40;65.90
49319;DHT22;35818;44.498;0.166;2022-09-01T23:21:15;22.30;66.20
49319;DHT22;35818;44.498;0.166;2022-09-01T23:23:42;22.30;66.50
49319;DHT22;35818;44.498;0.166;2022-09-01T23:26:08;22.20;66.60
49319;DHT22;35818;44.498;0.166;2022-09-01T23:28:34;22.20;66.60
49319;DHT22;35818;44.498;0.166;2022-09-01T23:30:59;22.20;66.70
49319;DHT22;35818;44.498;0.166;2022-09-01T23:33:26;22.10;66.60
49319;DHT22;35818;44.498;0.166;2022-09-01T23:35:54;22.10;66.60
49319;DHT22;35818;44.498;0.166;2022-09-01T23:38:20;22.10;66.50
49319;DHT22;35818;44.498;0.166;2022-09-01T23:40:48;22.10;66.50
49319;DHT22;35818;44.498;0.166;2022-09-01T23:43:14;22.10;66.60
49319;DHT22;35818;44.498;0.166;2022-09-01T23:45:41;22.10;66.80
49319;DHT22;35818;44.498;0.166;2022-09-01T23:48:07;22.00;67.10
49319;DHT22;35818;44.498;0.166;2022-09-01T23:50:39;22.00;67.30
49319;DHT22;35818;44.498;0.166;2022-09-01T23:53:05;22.00;67.40
49319;DHT22;35818;44.498;0.166;2022-09-01T23:55:30;21.90;67.40
49319;DHT22;35818;44.498;0.166;2022-09-01T23:57:56;21.90;67.40
